Details From KSHV - SHREVEPORT RGNL
To KRBD - DALLAS EXECUTIVE
Flight Number -
Tags generated
Created
Modified
Stats Distance 155 nm / 287 km
Max Altitude 18,700 ft / 5,700 m
Waypoints 3
Social Downloads 1
Likes 0
Share VATSIM

Download

Looking for another format? Having issues loading an existing format? Contact us
Advertisement - Login to hide

Notes

Basic altitude profile: - Ascent Rate: 2400ft/min - Ascent Speed: 250kts - Cruise Altitude: 18000ft - Cruise Speed: 320kts - Descent Rate: 2000ft/min - Descent Speed: 300kts Options: - Use NATs: yes - Use PACOTS: yes - Use low airways: yes - Use high airways: no

Route

KSHV AWLAR KRBD

ID Type Via Altitude Latitude Longitude Leg Dist Tot Dist Heading (true) Name
O KSHV APT - 0 ft / 0 m 32.44696˚ -93.82541˚ - 0 nm - SHREVEPORT RGNL
AWLAR FIX - 18,700 ft / 5,700 m 32.63906˚ -95.04534˚ 62 nm 62 nm 281° / 280° -
O KRBD APT - 0 ft / 0 m 32.68081˚ -96.86792˚ 92 nm 155 nm 272° / 271° DALLAS EXECUTIVE

Altitude Profile

Advertisement - Login to hide

KSHV

Details ICAO KSHV (SHV)
Name SHREVEPORT RGNL
Region United States
Timezone America/Chicago (UTC-6.0)
Stats Elevation 257 ft / 78 m (AMSL)
Location 32.446960° -93.825410°
Runways 2
Magnetic Variation 1.435° E

METAR

KSHV 150656Z 36010KT 10SM SCT280 07/M01 A3016 RMK AO2 SLP212 T00671011

Decode

TAF

KSHV 150530Z 1506/1606 35008KT P6SM BKN250 FM151100 35005KT P6SM SCT200 BKN250 FM151800 32005KT P6SM SCT200 BKN250 FM160000 VRB03KT P6SM BKN250

Decode

Departure Runways

ID Width Length Bearing (true) Bearing (mag) Surface Threshold Offset Overrun Length
05 150 ft / 46 m 6,197 ft / 1,889 m 60.78° 59.34° Asphalt 0 ft / 0 m 102 ft / 31 m
14 200 ft / 61 m 8,361 ft / 2,548 m 142.84° 141.40° Asphalt 0 ft / 0 m 102 ft / 31 m
23 150 ft / 46 m 6,197 ft / 1,889 m 240.79° 239.35° Asphalt 0 ft / 0 m 102 ft / 31 m
32 200 ft / 61 m 8,361 ft / 2,548 m 322.85° 321.41° Asphalt 374 ft / 114 m 102 ft / 31 m

KRBD

Details ICAO KRBD (RBD)
Name DALLAS EXECUTIVE
Region United States
Timezone America/Chicago (UTC-6.0)
Stats Elevation 660 ft / 201 m (AMSL)
Location 32.680811° -96.867918°
Runways 2
Magnetic Variation 3.333° E

METAR

KRBD 150653Z AUTO 34005KT 10SM CLR 05/M02 A3020 RMK AO2 SLP227 T00501022

Decode

TAF

Not found

Destination Runways

ID Width Length Bearing (true) Bearing (mag) Surface Threshold Offset Overrun Length
13 150 ft / 46 m 6,454 ft / 1,967 m 135.21° 131.88° Concrete 0 ft / 0 m 0 ft / 0 m
17 150 ft / 46 m 3,810 ft / 1,161 m 180.12° 176.79° Concrete 0 ft / 0 m 0 ft / 0 m
31 150 ft / 46 m 6,454 ft / 1,967 m 315.22° 311.89° Concrete 0 ft / 0 m 0 ft / 0 m
35 150 ft / 46 m 3,810 ft / 1,161 m 0.12° 356.79° Concrete 0 ft / 0 m 0 ft / 0 m

Approach Navaids

Runway Type Ident Frequency Range Bearing (true) Bearing (mag) Slope Elevation
31 Localiser IRBD 108.50 MHz 18 nm / 33 km 315.21° 311.88° - 660 ft / 201 m (AMSL)
31 Glidescope IRBD 108.50 MHz 10 nm / 19 km 315.21° 311.88° 3.00° 651 ft / 198 m (AMSL)